createdAt,value
2022-12-08T00:00:10.244Z,1.65
2022-12-08T00:02:44.399Z,0.20
2022-12-08T00:05:30.649Z,2.92
2022-12-08T00:08:16.776Z,2.63
2022-12-08T00:10:49.978Z,1.20
2022-12-08T00:13:19.989Z,0.90
2022-12-08T00:15:48.607Z,0.52
2022-12-08T00:18:16.903Z,2.40
2022-12-08T00:20:45.148Z,1.48
2022-12-08T00:23:14.414Z,0.88
2022-12-08T00:25:42.654Z,1.38
2022-12-08T00:28:10.906Z,0.65
2022-12-08T00:30:42.427Z,0.93
2022-12-08T00:33:10.688Z,1.55
2022-12-08T00:35:43.112Z,1.00
2022-12-08T00:38:11.886Z,1.90
2022-12-08T00:40:40.179Z,2.88
2022-12-08T00:43:08.557Z,3.17
2022-12-08T00:45:37.526Z,2.58
2022-12-08T00:48:09.448Z,2.03
2022-12-08T00:50:37.867Z,2.45
2022-12-08T00:53:06.645Z,2.30
2022-12-08T00:55:35.423Z,2.10
2022-12-08T00:58:03.786Z,4.10
2022-12-08T01:00:33.312Z,2.67
2022-12-08T01:03:01.601Z,3.20
2022-12-08T01:05:32.270Z,4.03
2022-12-08T01:08:00.838Z,2.97
2022-12-08T01:10:29.189Z,6.40
2022-12-08T01:12:57.391Z,3.83
2022-12-08T01:15:25.740Z,3.63
2022-12-08T01:17:53.998Z,2.20
2022-12-08T01:20:22.227Z,3.05
2022-12-08T01:22:51.840Z,2.25
2022-12-08T01:25:20.140Z,3.63
2022-12-08T01:27:48.754Z,1.42
2022-12-08T01:30:17.036Z,3.88
2022-12-08T01:32:45.254Z,1.63
2022-12-08T01:35:13.993Z,1.98
2022-12-08T01:37:42.450Z,3.15
2022-12-08T01:40:14.462Z,2.50
2022-12-08T01:42:42.696Z,2.35
2022-12-08T01:45:15.429Z,1.13
2022-12-08T01:47:47.931Z,2.60
2022-12-08T01:50:17.836Z,3.00
2022-12-08T01:52:48.159Z,2.90
2022-12-08T01:55:19.468Z,2.13
2022-12-08T01:57:49.103Z,1.48
2022-12-08T02:00:19.462Z,2.50
2022-12-08T02:02:51.852Z,3.08
2022-12-08T02:05:20.799Z,2.22
2022-12-08T02:07:49.623Z,2.88
2022-12-08T02:10:20.590Z,2.30
2022-12-08T02:12:49.800Z,1.15
2022-12-08T02:15:19.372Z,2.85
2022-12-08T02:17:54.552Z,2.83
2022-12-08T02:20:32.710Z,5.95
2022-12-08T02:23:04.470Z,4.72
2022-12-08T02:25:38.220Z,2.97
2022-12-08T02:28:17.132Z,4.07
2022-12-08T02:30:49.090Z,2.80
2022-12-08T02:33:29.388Z,1.77
2022-12-08T02:36:01.359Z,2.67
2022-12-08T02:38:37.261Z,2.97
2022-12-08T02:41:10.168Z,1.45
2022-12-08T02:43:45.978Z,4.03
2022-12-08T02:46:17.887Z,3.83
2022-12-08T02:48:46.767Z,4.03
2022-12-08T02:51:16.589Z,3.35
2022-12-08T02:53:46.090Z,7.47
2022-12-08T02:56:20.490Z,2.85
2022-12-08T02:58:54.774Z,4.20
2022-12-08T03:01:36.051Z,3.90
2022-12-08T03:04:07.335Z,1.85
2022-12-08T03:06:43.073Z,2.88
2022-12-08T03:09:13.998Z,2.10
2022-12-08T03:11:45.134Z,2.63
2022-12-08T03:14:16.840Z,3.75
2022-12-08T03:16:47.659Z,1.33
2022-12-08T03:19:18.531Z,0.30
2022-12-08T03:21:50.654Z,0.60
2022-12-08T03:24:19.319Z,2.47
2022-12-08T03:26:50.306Z,1.83
2022-12-08T03:29:18.998Z,0.45
2022-12-08T03:31:50.024Z,0.43
2022-12-08T03:34:18.992Z,2.95
2022-12-08T03:36:48.964Z,0.70
2022-12-08T03:39:17.674Z,0.60
2022-12-08T03:41:46.370Z,0.93
2022-12-08T03:44:15.272Z,0.90
2022-12-08T03:46:43.675Z,1.48
2022-12-08T03:49:12.002Z,2.78
2022-12-08T03:51:40.370Z,1.90
2022-12-08T03:54:10.093Z,2.15
2022-12-08T03:56:39.368Z,3.88
2022-12-08T03:59:08.457Z,1.20
2022-12-08T04:01:36.906Z,4.13
2022-12-08T04:04:06.977Z,1.92
2022-12-08T04:06:35.207Z,3.33
2022-12-08T04:09:03.624Z,1.70
2022-12-08T04:11:33.210Z,2.00
2022-12-08T04:14:03.680Z,0.73
2022-12-08T04:16:32.196Z,1.75
2022-12-08T04:19:00.521Z,1.67
2022-12-08T04:21:29.707Z,0.60
2022-12-08T04:24:01.673Z,2.30
2022-12-08T04:26:32.034Z,1.58
2022-12-08T04:29:01.837Z,1.50
2022-12-08T04:31:30.184Z,4.38
2022-12-08T04:33:58.605Z,1.42
2022-12-08T04:36:26.924Z,0.88
2022-12-08T04:38:55.208Z,1.85
2022-12-08T04:41:23.721Z,1.15
2022-12-08T04:43:52.196Z,0.57
2022-12-08T04:46:21.832Z,1.67
2022-12-08T04:48:51.960Z,1.73
2022-12-08T04:51:20.784Z,2.85
2022-12-08T04:53:49.850Z,7.38
2022-12-08T04:56:19.195Z,2.38
2022-12-08T04:58:47.838Z,4.63
2022-12-08T05:01:19.466Z,1.38
2022-12-08T05:03:49.111Z,2.28
2022-12-08T05:06:18.208Z,1.35
2022-12-08T05:08:46.758Z,2.40
2022-12-08T05:11:15.300Z,3.35
2022-12-08T05:13:46.608Z,3.17
2022-12-08T05:16:18.166Z,2.25
2022-12-08T05:18:46.726Z,4.07
2022-12-08T05:21:16.360Z,1.83
2022-12-08T05:23:45.099Z,3.55
2022-12-08T05:26:13.465Z,0.77
2022-12-08T05:28:42.928Z,1.58
2022-12-08T05:31:15.459Z,5.55
2022-12-08T05:33:44.185Z,2.65
2022-12-08T05:36:13.395Z,2.63
2022-12-08T05:38:43.154Z,3.22
2022-12-08T05:41:12.183Z,3.50
2022-12-08T05:43:42.067Z,1.58
2022-12-08T05:46:10.573Z,2.60
2022-12-08T05:48:39.007Z,1.85
2022-12-08T05:51:10.789Z,4.60
2022-12-08T05:53:40.807Z,0.85
2022-12-08T05:56:12.242Z,0.38
2022-12-08T05:58:40.785Z,0.57
2022-12-08T06:01:09.194Z,0.90
2022-12-08T06:03:37.460Z,2.30
2022-12-08T06:06:05.819Z,3.53
2022-12-08T06:08:34.170Z,0.32
2022-12-08T06:11:02.521Z,0.63
2022-12-08T06:13:32.122Z,1.35
2022-12-08T06:16:06.890Z,1.45
2022-12-08T06:18:36.932Z,0.52
2022-12-08T06:21:05.846Z,3.40
2022-12-08T06:23:34.300Z,0.10
2022-12-08T06:26:03.219Z,0.08
2022-12-08T06:28:33.232Z,0.95
2022-12-08T06:31:01.631Z,0.40
2022-12-08T06:33:29.852Z,0.25
2022-12-08T06:36:01.671Z,0.28
2022-12-08T06:38:31.440Z,2.85
2022-12-08T06:41:00.400Z,2.90
2022-12-08T06:43:28.917Z,0.47
2022-12-08T06:45:58.849Z,0.47
2022-12-08T06:48:28.295Z,0.15
2022-12-08T06:50:56.553Z,3.25
2022-12-08T06:53:24.847Z,1.63
2022-12-08T06:56:01.311Z,0.75
2022-12-08T06:58:29.641Z,0.98
2022-12-08T07:01:05.187Z,1.02
2022-12-08T07:03:33.740Z,0.38
2022-12-08T07:06:04.528Z,0.10
2022-12-08T07:08:33.655Z,1.95
2022-12-08T07:11:02.163Z,0.88
2022-12-08T07:13:33.696Z,1.60
2022-12-08T07:16:05.911Z,2.67
2022-12-08T07:18:34.509Z,1.70
2022-12-08T07:21:16.067Z,3.45
2022-12-08T07:23:45.037Z,0.73
2022-12-08T07:26:15.115Z,0.40
2022-12-08T07:28:44.084Z,1.13
2022-12-08T07:31:19.720Z,0.40
2022-12-08T07:33:50.270Z,0.10
2022-12-08T07:36:20.654Z,0.70
2022-12-08T07:38:49.303Z,1.52
2022-12-08T07:41:18.499Z,2.60
2022-12-08T07:43:47.091Z,0.17
2022-12-08T07:46:16.358Z,0.30
2022-12-08T07:48:46.848Z,0.10
2022-12-08T07:51:15.974Z,3.05
2022-12-08T07:53:51.680Z,1.70
2022-12-08T07:56:22.238Z,1.55
2022-12-08T07:58:50.528Z,0.35
2022-12-08T08:01:26.557Z,0.70
2022-12-08T08:03:57.358Z,0.10
2022-12-08T08:06:25.803Z,0.28
2022-12-08T08:08:54.151Z,0.20
2022-12-08T08:11:22.391Z,0.63
2022-12-08T08:13:52.655Z,0.35
2022-12-08T08:16:22.914Z,1.27
2022-12-08T08:18:51.819Z,3.85
2022-12-08T08:24:13.794Z,1.13
2022-12-08T08:26:42.194Z,0.88
2022-12-08T08:29:10.477Z,1.48
2022-12-08T08:31:40.710Z,1.77
2022-12-08T08:34:09.146Z,1.52
2022-12-08T08:36:39.667Z,1.00
2022-12-08T08:39:08.117Z,3.05
2022-12-08T08:41:36.533Z,0.88
2022-12-08T08:44:04.818Z,1.80
2022-12-08T08:46:35.232Z,2.38
2022-12-08T08:49:03.452Z,1.92
2022-12-08T08:51:31.833Z,2.63
2022-12-08T08:54:01.486Z,1.98
2022-12-08T08:56:29.832Z,3.22
2022-12-08T08:58:58.108Z,3.67
2022-12-08T09:01:29.433Z,0.85
2022-12-08T09:04:00.248Z,3.28
2022-12-08T09:06:29.055Z,1.20
2022-12-08T09:08:57.555Z,0.57
2022-12-08T09:11:27.233Z,2.83
2022-12-08T09:13:55.891Z,1.85
2022-12-08T09:16:26.542Z,1.23
2022-12-08T09:18:55.009Z,2.58
2022-12-08T09:21:27.661Z,1.50
2022-12-08T09:23:57.379Z,0.30
2022-12-08T09:26:27.298Z,1.17
2022-12-08T09:28:56.079Z,1.30
2022-12-08T09:31:24.833Z,1.67
2022-12-08T09:33:54.125Z,1.45
2022-12-08T09:36:22.929Z,1.42
2022-12-08T09:38:53.502Z,5.68
2022-12-08T09:41:30.808Z,3.17
2022-12-08T09:44:06.079Z,2.00
2022-12-08T09:46:36.086Z,1.23
2022-12-08T09:49:05.034Z,1.05
2022-12-08T09:51:35.615Z,1.35
2022-12-08T09:54:07.697Z,4.57
2022-12-08T09:56:38.166Z,0.90
2022-12-08T09:59:18.005Z,1.42
2022-12-08T10:01:48.049Z,1.00
2022-12-08T10:04:21.847Z,1.27
2022-12-08T10:06:54.997Z,1.05
2022-12-08T10:09:28.547Z,1.27
2022-12-08T10:12:00.940Z,1.95
2022-12-08T10:14:33.227Z,1.42
2022-12-08T10:17:06.589Z,2.20
2022-12-08T10:19:35.862Z,3.72
2022-12-08T10:22:07.035Z,2.30
2022-12-08T10:24:37.336Z,1.60
2022-12-08T10:27:06.191Z,2.17
2022-12-08T10:29:36.531Z,3.78
2022-12-08T10:32:19.473Z,2.50
2022-12-08T10:35:01.965Z,2.55
2022-12-08T10:37:30.442Z,2.95
2022-12-08T10:40:02.958Z,3.50
2022-12-08T10:42:35.828Z,3.10
2022-12-08T10:45:16.188Z,3.40
2022-12-08T10:47:46.496Z,2.58
2022-12-08T10:50:21.306Z,4.68
2022-12-08T10:52:59.085Z,4.78
2022-12-08T10:55:28.022Z,2.65
2022-12-08T10:57:56.453Z,2.50
2022-12-08T11:00:27.914Z,1.63
2022-12-08T11:02:58.324Z,1.50
2022-12-08T11:05:29.820Z,3.08
2022-12-08T11:07:58.875Z,1.70
2022-12-08T11:10:38.114Z,1.55
2022-12-08T11:13:07.377Z,2.83
2022-12-08T11:15:40.087Z,3.28
2022-12-08T11:18:11.894Z,2.28
2022-12-08T11:20:40.870Z,2.63
2022-12-08T11:23:20.952Z,1.50
2022-12-08T11:25:50.060Z,1.80
2022-12-08T11:28:19.659Z,0.57
2022-12-08T11:30:51.792Z,1.30
2022-12-08T11:33:24.401Z,1.67
2022-12-08T11:35:56.040Z,2.30
2022-12-08T11:38:25.896Z,0.77
2022-12-08T11:40:55.678Z,2.00
2022-12-08T11:43:28.704Z,1.95
2022-12-08T11:46:00.793Z,2.83
2022-12-08T11:48:32.386Z,1.33
2022-12-08T11:51:02.439Z,1.30
2022-12-08T11:53:34.999Z,1.83
2022-12-08T11:56:17.928Z,0.93
2022-12-08T11:58:47.881Z,1.10
2022-12-08T12:01:21.468Z,3.17
2022-12-08T12:03:52.513Z,1.75
2022-12-08T12:06:54.394Z,1.67
2022-12-08T12:09:24.949Z,1.80
2022-12-08T12:12:19.746Z,2.42
2022-12-08T12:15:03.420Z,2.88
2022-12-08T12:17:37.652Z,1.98
2022-12-08T12:20:14.196Z,3.85
2022-12-08T12:22:43.798Z,0.82
2022-12-08T12:25:18.318Z,0.55
2022-12-08T12:27:49.370Z,0.35
2022-12-08T12:30:22.314Z,1.15
2022-12-08T12:32:55.836Z,0.38
2022-12-08T12:35:29.455Z,1.13
2022-12-08T12:37:59.722Z,2.75
2022-12-08T12:40:31.033Z,3.08
2022-12-08T12:43:24.090Z,0.82
2022-12-08T12:45:52.653Z,1.25
2022-12-08T12:48:28.372Z,0.77
2022-12-08T12:50:56.830Z,1.80
2022-12-08T12:53:43.685Z,0.20
2022-12-08T12:56:12.970Z,0.95
2022-12-08T12:58:42.759Z,1.05
2022-12-08T13:01:35.221Z,1.65
2022-12-08T13:04:07.246Z,0.30
2022-12-08T13:06:38.163Z,1.08
2022-12-08T13:09:07.248Z,1.77
2022-12-08T13:11:48.200Z,2.20
2022-12-08T13:14:27.836Z,0.40
2022-12-08T13:16:58.604Z,1.02
2022-12-08T13:19:31.251Z,0.88
2022-12-08T13:21:59.945Z,1.15
2022-12-08T13:24:36.062Z,1.45
2022-12-08T13:27:24.402Z,3.17
2022-12-08T13:30:22.402Z,4.07
2022-12-08T13:33:17.308Z,1.38
2022-12-08T13:35:49.683Z,2.78
2022-12-08T13:38:20.851Z,1.17
2022-12-08T13:40:49.273Z,1.27
2022-12-08T13:43:22.640Z,1.23
2022-12-08T13:57:26.251Z,1.20
2022-12-08T13:59:54.803Z,0.70
2022-12-08T14:02:30.772Z,3.20
2022-12-08T14:07:50.161Z,1.20
2022-12-08T14:10:21.222Z,1.30
2022-12-08T14:12:54.000Z,2.00
2022-12-08T14:15:22.859Z,1.73
2022-12-08T14:17:52.931Z,1.02
2022-12-08T14:20:22.349Z,1.38
2022-12-08T14:22:55.942Z,0.90
2022-12-08T14:25:26.302Z,1.52
2022-12-08T14:28:00.918Z,2.60
2022-12-08T14:30:31.891Z,1.83
2022-12-08T14:33:01.113Z,2.33
2022-12-08T14:35:30.599Z,1.60
2022-12-08T14:38:02.589Z,1.10
2022-12-08T14:40:32.446Z,1.05
2022-12-08T14:43:08.532Z,1.90
2022-12-08T14:45:47.957Z,0.57
2022-12-08T14:48:22.970Z,2.88
2022-12-08T14:51:05.958Z,3.95
2022-12-08T14:53:40.612Z,4.97
2022-12-08T14:56:12.024Z,2.30
2022-12-08T14:58:40.366Z,1.52
2022-12-08T15:01:10.422Z,1.08
2022-12-08T15:03:38.909Z,0.40
2022-12-08T15:06:08.322Z,2.63
2022-12-08T15:08:51.734Z,0.40
2022-12-08T15:11:30.484Z,1.35
2022-12-08T15:14:00.621Z,0.68
2022-12-08T15:16:30.519Z,1.95
2022-12-08T15:19:09.689Z,0.73
2022-12-08T15:21:41.373Z,2.60
2022-12-08T15:24:13.506Z,5.35
2022-12-08T15:26:44.036Z,2.42
2022-12-08T15:29:13.464Z,1.17
2022-12-08T15:31:41.954Z,3.35
2022-12-08T15:34:18.906Z,1.52
2022-12-08T15:36:47.655Z,0.47
2022-12-08T15:39:22.692Z,0.55
2022-12-08T15:41:52.384Z,1.88
2022-12-08T15:44:20.725Z,0.60
2022-12-08T15:46:49.919Z,1.27
2022-12-08T15:49:21.060Z,3.47
2022-12-08T15:51:49.694Z,2.50
2022-12-08T15:54:18.505Z,1.00
2022-12-08T15:57:17.308Z,1.38
2022-12-08T15:59:38.972Z,1.58
2022-12-08T16:02:07.408Z,0.98
2022-12-08T16:07:28.912Z,3.08
2022-12-08T16:09:57.908Z,2.00
2022-12-08T16:13:48.099Z,1.13
2022-12-08T16:15:51.676Z,1.25
2022-12-08T16:18:27.327Z,1.13
2022-12-08T16:21:10.356Z,1.48
2022-12-08T16:23:45.467Z,1.67
2022-12-08T16:26:35.664Z,1.40
2022-12-08T16:29:05.607Z,2.08
2022-12-08T16:31:35.724Z,3.92
2022-12-08T16:34:04.114Z,2.50
2022-12-08T16:36:32.532Z,2.55
2022-12-08T16:39:01.161Z,2.00
2022-12-08T16:41:47.568Z,1.88
2022-12-08T16:44:15.919Z,2.30
2022-12-08T16:46:45.493Z,2.40
2022-12-08T16:49:16.545Z,1.80
2022-12-08T16:51:45.231Z,3.38
2022-12-08T16:54:13.497Z,3.28
2022-12-08T16:56:42.905Z,3.25
2022-12-08T16:59:12.864Z,3.20
2022-12-08T17:01:41.216Z,3.90
2022-12-08T17:06:59.898Z,2.33
2022-12-08T17:09:29.166Z,2.03
2022-12-08T17:12:03.468Z,3.92
2022-12-08T17:14:33.840Z,1.25
2022-12-08T17:17:02.285Z,7.30
2022-12-08T17:19:31.994Z,2.60
2022-12-08T17:22:02.087Z,2.28
2022-12-08T17:24:31.401Z,3.35
2022-12-08T17:27:03.987Z,2.17
2022-12-08T17:29:32.575Z,3.47
2022-12-08T17:32:00.965Z,3.25
2022-12-08T17:34:30.489Z,1.80
2022-12-08T17:37:01.782Z,2.65
2022-12-08T17:39:31.288Z,1.83
2022-12-08T17:41:59.750Z,2.25
2022-12-08T17:44:28.153Z,1.35
2022-12-08T17:46:56.533Z,2.35
2022-12-08T17:49:25.700Z,3.40
2022-12-08T17:51:54.878Z,3.70
2022-12-08T17:54:24.709Z,1.98
2022-12-08T17:56:53.188Z,3.25
2022-12-08T17:59:21.769Z,2.92
2022-12-08T18:01:50.134Z,2.17
2022-12-08T18:04:19.623Z,2.65
2022-12-08T18:06:48.099Z,5.70
2022-12-08T18:09:16.849Z,5.75
2022-12-08T18:11:46.997Z,3.15
2022-12-08T18:14:15.603Z,3.92
2022-12-08T18:16:45.472Z,4.40
2022-12-08T18:19:14.782Z,5.82
2022-12-08T18:21:43.720Z,3.55
2022-12-08T18:24:17.129Z,3.50
2022-12-08T18:26:46.808Z,3.45
2022-12-08T18:29:19.075Z,4.40
2022-12-08T18:31:47.795Z,3.90
2022-12-08T18:34:16.493Z,4.93
2022-12-08T18:36:44.854Z,5.70
2022-12-08T18:39:21.669Z,5.65
2022-12-08T18:41:51.286Z,5.65
2022-12-08T18:44:21.162Z,6.72
2022-12-08T18:46:49.653Z,7.63
2022-12-08T18:49:19.091Z,7.50
2022-12-08T18:51:47.701Z,5.85
2022-12-08T18:54:17.856Z,5.88
2022-12-08T18:56:46.246Z,7.85
2022-12-08T18:59:17.013Z,6.03
2022-12-08T19:01:45.293Z,8.38
2022-12-08T19:04:28.365Z,10.30
2022-12-08T19:06:57.343Z,9.07
2022-12-08T19:09:26.723Z,7.63
2022-12-08T19:11:55.191Z,7.57
2022-12-08T19:14:28.120Z,9.48
2022-12-08T19:16:56.715Z,9.20
2022-12-08T19:19:25.058Z,8.10
2022-12-08T19:21:53.569Z,9.90
2022-12-08T19:24:21.930Z,8.90
2022-12-08T19:26:51.062Z,8.70
2022-12-08T19:29:22.729Z,9.27
2022-12-08T19:31:52.519Z,7.88
2022-12-08T19:34:21.143Z,8.10
2022-12-08T19:36:49.755Z,7.63
2022-12-08T19:39:36.540Z,12.15
2022-12-08T19:42:22.996Z,10.20
2022-12-08T19:44:54.406Z,8.65
2022-12-08T19:47:24.843Z,11.02
2022-12-08T19:49:53.849Z,9.40
2022-12-08T19:52:22.548Z,7.32
2022-12-08T19:54:50.946Z,8.85
2022-12-08T19:57:20.474Z,7.95
2022-12-08T19:59:54.606Z,10.80
2022-12-08T20:02:26.541Z,7.95
2022-12-08T20:04:54.939Z,8.05
2022-12-08T20:07:23.192Z,10.75
2022-12-08T20:09:52.532Z,9.48
2022-12-08T20:12:20.747Z,8.65
2022-12-08T20:14:49.094Z,11.88
2022-12-08T20:17:17.864Z,7.72
2022-12-08T20:19:49.446Z,9.50
2022-12-08T20:22:19.468Z,8.05
2022-12-08T20:24:57.208Z,7.57
2022-12-08T20:27:29.085Z,8.07
2022-12-08T20:29:57.678Z,8.50
2022-12-08T20:32:25.910Z,8.27
2022-12-08T20:34:55.869Z,10.85
2022-12-08T20:37:24.261Z,8.30
2022-12-08T20:39:57.763Z,8.50
2022-12-08T20:42:26.152Z,7.68
2022-12-08T20:44:54.441Z,9.18
2022-12-08T20:47:22.823Z,9.73
2022-12-08T20:49:51.221Z,10.48
2022-12-08T20:52:23.026Z,8.95
2022-12-08T20:54:51.350Z,10.38
2022-12-08T20:57:19.701Z,9.55
2022-12-08T20:59:48.021Z,12.40
2022-12-08T21:02:16.711Z,13.07
2022-12-08T21:04:45.249Z,12.85
2022-12-08T21:07:15.242Z,13.77
2022-12-08T21:09:45.417Z,15.70
2022-12-08T21:12:13.897Z,16.55
2022-12-08T21:14:42.409Z,12.23
2022-12-08T21:17:11.058Z,15.90
2022-12-08T21:19:39.678Z,16.48
2022-12-08T21:22:10.784Z,15.85
2022-12-08T21:24:39.199Z,18.38
2022-12-08T21:27:10.195Z,19.13
2022-12-08T21:29:39.903Z,18.25
2022-12-08T21:32:08.498Z,18.25
2022-12-08T21:34:45.661Z,23.05
2022-12-08T21:37:17.859Z,17.30
2022-12-08T21:39:49.062Z,21.40
2022-12-08T21:42:38.357Z,18.57
2022-12-08T21:45:08.055Z,17.90
2022-12-08T21:47:36.618Z,17.67
2022-12-08T21:50:05.553Z,20.67
2022-12-08T21:52:35.771Z,18.50
2022-12-08T21:55:04.258Z,17.00
2022-12-08T21:57:41.710Z,21.70
2022-12-08T22:00:11.543Z,21.50
2022-12-08T22:02:42.444Z,20.48
2022-12-08T22:05:11.300Z,18.30
2022-12-08T22:07:40.783Z,19.67
2022-12-08T22:10:10.548Z,18.98
2022-12-08T22:12:41.123Z,21.02
2022-12-08T22:15:10.585Z,22.17
2022-12-08T22:17:39.945Z,21.13
2022-12-08T22:20:10.404Z,18.33
2022-12-08T22:22:40.888Z,18.27
2022-12-08T22:25:11.920Z,19.33
2022-12-08T22:27:42.644Z,19.45
2022-12-08T22:30:12.056Z,20.33
2022-12-08T22:32:41.866Z,23.52
2022-12-08T22:35:11.272Z,21.73
2022-12-08T22:37:39.553Z,20.67
2022-12-08T22:40:09.231Z,19.77
2022-12-08T22:42:38.067Z,21.45
2022-12-08T22:45:08.515Z,19.05
2022-12-08T22:47:37.076Z,20.00
2022-12-08T22:50:06.132Z,21.00
2022-12-08T22:52:34.708Z,24.15
2022-12-08T22:55:03.034Z,22.80
2022-12-08T22:57:31.896Z,24.33
2022-12-08T23:00:03.542Z,25.00
2022-12-08T23:02:33.516Z,21.13
2022-12-08T23:05:02.042Z,20.23
2022-12-08T23:07:30.571Z,21.08
2022-12-08T23:10:01.132Z,24.27
2022-12-08T23:12:29.689Z,21.02
2022-12-08T23:14:58.866Z,23.05
2022-12-08T23:17:27.730Z,24.13
2022-12-08T23:19:57.700Z,24.60
2022-12-08T23:22:28.737Z,21.75
2022-12-08T23:24:57.044Z,21.55
2022-12-08T23:27:25.469Z,21.40
2022-12-08T23:29:54.171Z,22.00
2022-12-08T23:32:22.647Z,20.35
2022-12-08T23:34:51.904Z,18.80
2022-12-08T23:37:21.877Z,21.38
2022-12-08T23:39:51.086Z,21.95
2022-12-08T23:42:19.522Z,27.73
2022-12-08T23:44:48.126Z,22.38
2022-12-08T23:47:16.732Z,20.42
2022-12-08T23:49:45.257Z,21.73
2022-12-08T23:52:14.713Z,18.58
2022-12-08T23:54:44.886Z,20.95
2022-12-08T23:57:13.403Z,26.23
2022-12-08T23:59:41.797Z,22.42
